createdAt,value
2022-12-12T00:01:41.935Z,0.25
2022-12-12T00:04:44.714Z,0.25
2022-12-12T00:07:49.218Z,0.24
2022-12-12T00:10:51.801Z,0.22
2022-12-12T00:13:55.365Z,0.19
2022-12-12T00:16:58.035Z,0.15
2022-12-12T00:20:00.831Z,0.11
2022-12-12T00:23:04.777Z,0.12
2022-12-12T00:26:12.459Z,0.11
2022-12-12T00:29:15.150Z,0.12
2022-12-12T00:32:17.815Z,0.06
2022-12-12T00:35:20.602Z,0.03
2022-12-12T00:38:25.265Z,-0.01
2022-12-12T00:41:28.455Z,-0.02
2022-12-12T00:44:31.209Z,-0.07
2022-12-12T00:47:33.995Z,-0.12
2022-12-12T00:50:36.849Z,-0.12
2022-12-12T00:53:41.291Z,-0.14
2022-12-12T00:56:44.131Z,-0.15
2022-12-12T00:59:46.976Z,-0.21
2022-12-12T01:02:51.774Z,-0.24
2022-12-12T01:05:54.488Z,-0.26
2022-12-12T01:08:59.106Z,-0.34
2022-12-12T01:12:02.018Z,-0.35
2022-12-12T01:15:06.625Z,-0.28
2022-12-12T01:18:09.633Z,-0.28
2022-12-12T01:21:16.811Z,-0.31
2022-12-12T01:24:20.929Z,-0.33
2022-12-12T01:27:24.197Z,-0.30
2022-12-12T01:30:27.913Z,-0.28
2022-12-12T01:33:31.121Z,-0.26
2022-12-12T01:36:34.055Z,-0.24
2022-12-12T01:39:38.932Z,-0.31
2022-12-12T01:42:41.853Z,-0.36
2022-12-12T01:46:37.468Z,-0.39
2022-12-12T01:49:41.276Z,-0.50
2022-12-12T01:52:48.774Z,-0.74
2022-12-12T01:55:53.340Z,-0.91
2022-12-12T01:58:57.031Z,-1.05
2022-12-12T02:01:59.812Z,-1.06
2022-12-12T02:05:06.075Z,-1.08
2022-12-12T02:08:09.670Z,-1.23
2022-12-12T02:11:13.856Z,-1.29
2022-12-12T02:14:19.419Z,-1.43
2022-12-12T02:17:45.310Z,-1.53
2022-12-12T02:21:03.190Z,-1.55
2022-12-12T02:24:38.138Z,-1.54
2022-12-12T02:27:53.699Z,-1.67
2022-12-12T02:31:13.925Z,-1.92
2022-12-12T02:34:20.899Z,-2.05
2022-12-12T02:37:32.513Z,-2.16
2022-12-12T02:40:40.521Z,-2.28
2022-12-12T02:43:45.471Z,-2.35
2022-12-12T02:46:53.720Z,-2.41
2022-12-12T02:49:58.973Z,-2.54
2022-12-12T02:53:02.218Z,-2.56
2022-12-12T02:56:07.436Z,-2.52
2022-12-12T02:59:11.043Z,-2.40
2022-12-12T03:02:33.482Z,-2.39
2022-12-12T03:06:01.407Z,-2.48
2022-12-12T03:09:10.590Z,-2.77
2022-12-12T03:12:17.404Z,-2.89
2022-12-12T03:15:24.386Z,-2.96
2022-12-12T03:18:32.366Z,-2.92
2022-12-12T03:21:40.539Z,-2.98
2022-12-12T03:24:49.606Z,-3.00
2022-12-12T03:27:55.572Z,-3.10
2022-12-12T03:31:00.324Z,-3.28
2022-12-12T03:34:08.257Z,-3.28
2022-12-12T03:37:14.927Z,-3.34
2022-12-12T03:40:21.748Z,-3.43
2022-12-12T03:43:26.837Z,-3.31
2022-12-12T03:46:32.651Z,-3.13
2022-12-12T03:49:41.539Z,-3.05
2022-12-12T03:52:47.528Z,-3.04
2022-12-12T03:55:53.116Z,-2.99
2022-12-12T03:58:59.173Z,-2.95
2022-12-12T04:02:04.891Z,-2.92
2022-12-12T04:05:16.086Z,-3.03
2022-12-12T04:08:19.404Z,-3.04
2022-12-12T04:11:40.411Z,-3.04
2022-12-12T04:15:06.558Z,-2.83
2022-12-12T04:18:15.937Z,-2.88
2022-12-12T04:21:43.690Z,-2.93
2022-12-12T04:24:49.670Z,-2.97
2022-12-12T04:27:56.980Z,-2.87
2022-12-12T04:31:03.524Z,-2.80
2022-12-12T04:34:11.226Z,-2.74
2022-12-12T04:37:18.332Z,-2.67
2022-12-12T04:40:23.143Z,-2.58
2022-12-12T04:43:31.608Z,-2.55
2022-12-12T04:46:35.001Z,-2.51
2022-12-12T04:49:39.658Z,-2.37
2022-12-12T04:52:44.641Z,-2.24
2022-12-12T04:55:50.914Z,-2.03
2022-12-12T04:58:55.645Z,-1.95
2022-12-12T05:02:06.043Z,-1.83
2022-12-12T05:05:13.388Z,-1.88
2022-12-12T05:08:22.328Z,-1.71
2022-12-12T05:11:25.721Z,-1.56
2022-12-12T05:14:28.779Z,-1.45
2022-12-12T05:17:36.585Z,-1.39
2022-12-12T05:20:39.707Z,-1.28
2022-12-12T05:23:44.002Z,-1.24
2022-12-12T05:26:46.666Z,-1.16
2022-12-12T05:29:49.649Z,-1.15
2022-12-12T05:32:53.626Z,-1.12
2022-12-12T05:35:56.494Z,-1.11
2022-12-12T05:39:01.342Z,-1.04
2022-12-12T05:42:04.248Z,-0.99
2022-12-12T05:45:08.245Z,-0.96
2022-12-12T05:48:11.377Z,-0.86
2022-12-12T05:51:14.330Z,-0.89
2022-12-12T05:54:18.345Z,-0.88
2022-12-12T05:57:21.683Z,-0.87
2022-12-12T06:00:24.463Z,-0.93
2022-12-12T06:03:27.584Z,-0.99
2022-12-12T06:06:30.262Z,-1.00
2022-12-12T06:09:34.468Z,-1.02
2022-12-12T06:12:37.059Z,-0.97
2022-12-12T06:15:41.144Z,-0.96
2022-12-12T06:18:43.733Z,-0.94
2022-12-12T06:21:46.569Z,-0.92
2022-12-12T06:24:50.629Z,-0.94
2022-12-12T06:27:53.237Z,-0.90
2022-12-12T06:30:55.915Z,-0.91
2022-12-12T06:33:58.843Z,-0.92
2022-12-12T06:37:01.624Z,-0.89
2022-12-12T06:40:06.651Z,-0.87
2022-12-12T06:43:10.131Z,-0.84
2022-12-12T06:46:16.665Z,-0.83
2022-12-12T06:49:20.876Z,-0.86
2022-12-12T06:52:23.969Z,-0.85
2022-12-12T06:55:28.823Z,-0.78
2022-12-12T06:58:33.372Z,-0.74
2022-12-12T07:01:36.157Z,-0.76
2022-12-12T07:04:38.988Z,-0.84
2022-12-12T07:07:41.719Z,-0.78
2022-12-12T07:10:46.322Z,-0.73
2022-12-12T07:13:48.978Z,-0.71
2022-12-12T07:16:51.604Z,-0.69
2022-12-12T07:19:54.378Z,-0.67
2022-12-12T07:22:57.340Z,-0.73
2022-12-12T07:26:04.436Z,-0.77
2022-12-12T07:29:07.190Z,-0.71
2022-12-12T07:32:10.094Z,-0.67
2022-12-12T07:35:12.871Z,-0.66
2022-12-12T07:38:15.915Z,-0.62
2022-12-12T07:41:21.339Z,-0.64
2022-12-12T07:44:23.991Z,-0.73
2022-12-12T07:47:26.576Z,-0.66
2022-12-12T07:50:29.578Z,-0.50
2022-12-12T07:53:32.477Z,-0.40
2022-12-12T07:56:36.724Z,-0.29
2022-12-12T07:59:39.780Z,-0.26
2022-12-12T08:02:42.911Z,-0.11
2022-12-12T08:05:46.235Z,-0.05
2022-12-12T08:08:50.954Z,0.01
2022-12-12T08:11:58.385Z,-0.03
2022-12-12T08:15:02.561Z,-0.08
2022-12-12T08:18:05.757Z,-0.02
2022-12-12T08:21:11.631Z,0.13
2022-12-12T08:24:16.268Z,0.25
2022-12-12T08:27:20.256Z,0.46
2022-12-12T08:30:23.035Z,0.67
2022-12-12T08:33:25.611Z,0.66
2022-12-12T08:36:30.270Z,0.73
2022-12-12T08:39:33.379Z,0.82
2022-12-12T08:42:37.601Z,0.73
2022-12-12T08:45:40.853Z,0.73
2022-12-12T08:48:43.752Z,0.61
2022-12-12T08:51:46.745Z,0.67
2022-12-12T08:54:49.482Z,0.60
2022-12-12T08:57:53.673Z,0.64
2022-12-12T09:00:57.873Z,0.90
2022-12-12T09:04:00.662Z,0.89
2022-12-12T09:07:08.837Z,0.93
2022-12-12T09:10:11.713Z,1.12
2022-12-12T09:13:15.627Z,1.30
2022-12-12T09:16:19.389Z,1.45
2022-12-12T09:19:22.061Z,1.57
2022-12-12T09:22:24.854Z,1.49
2022-12-12T09:25:27.502Z,1.52
2022-12-12T09:28:31.417Z,1.71
2022-12-12T09:31:33.945Z,2.06
2022-12-12T09:34:38.080Z,2.19
2022-12-12T09:37:41.296Z,2.37
2022-12-12T09:40:55.236Z,2.43
2022-12-12T09:44:01.705Z,2.22
2022-12-12T09:47:07.222Z,2.46
2022-12-12T09:50:16.357Z,2.61
2022-12-12T09:53:21.532Z,2.69
2022-12-12T09:56:28.936Z,2.68
2022-12-12T09:59:38.795Z,2.45
2022-12-12T10:02:49.615Z,2.69
2022-12-12T10:06:20.585Z,3.04
2022-12-12T10:09:36.531Z,3.17
2022-12-12T10:12:39.522Z,3.26
2022-12-12T10:15:46.197Z,3.52
2022-12-12T10:18:51.545Z,3.21
2022-12-12T10:21:55.889Z,3.58
2022-12-12T10:25:03.974Z,3.46
2022-12-12T10:28:11.073Z,3.39
2022-12-12T10:31:23.893Z,3.29
2022-12-12T10:34:35.870Z,3.21
2022-12-12T10:37:45.474Z,3.17
2022-12-12T10:40:54.771Z,3.18
2022-12-12T10:44:05.424Z,2.88
2022-12-12T10:47:11.789Z,2.48
2022-12-12T10:50:23.093Z,2.20
2022-12-12T10:53:26.040Z,2.13
2022-12-12T10:56:30.029Z,2.09
2022-12-12T10:59:33.124Z,2.15
2022-12-12T11:02:42.479Z,2.06
2022-12-12T11:05:45.996Z,2.03
2022-12-12T11:08:56.679Z,1.96
2022-12-12T11:12:01.003Z,2.00
2022-12-12T11:15:08.806Z,2.05
2022-12-12T11:18:17.184Z,1.95
2022-12-12T11:21:21.755Z,1.90
2022-12-12T11:24:28.813Z,1.96
2022-12-12T11:27:34.548Z,1.88
2022-12-12T11:30:39.980Z,1.69
2022-12-12T11:33:48.741Z,1.59
2022-12-12T11:36:51.850Z,1.70
2022-12-12T11:39:55.806Z,1.77
2022-12-12T11:43:15.581Z,1.85
2022-12-12T11:46:19.935Z,1.98
2022-12-12T11:49:24.202Z,2.06
2022-12-12T11:52:29.971Z,2.17
2022-12-12T11:55:38.681Z,2.26
2022-12-12T11:58:47.213Z,2.36
2022-12-12T12:01:57.438Z,2.39
2022-12-12T12:05:08.140Z,2.44
2022-12-12T12:08:19.316Z,2.47
2022-12-12T12:11:28.717Z,2.50
2022-12-12T12:14:45.722Z,2.51
2022-12-12T12:18:00.807Z,2.59
2022-12-12T12:21:29.357Z,2.58
2022-12-12T12:24:50.912Z,2.68
2022-12-12T12:28:01.724Z,2.84
2022-12-12T12:31:11.025Z,2.94
2022-12-12T12:34:20.606Z,3.02
2022-12-12T12:37:34.144Z,3.09
2022-12-12T12:40:49.470Z,3.05
2022-12-12T12:44:03.080Z,3.02
2022-12-12T12:47:13.514Z,3.12
2022-12-12T12:50:19.305Z,3.10
2022-12-12T12:53:30.007Z,3.20
2022-12-12T12:56:38.535Z,6.17
2022-12-12T12:59:47.030Z,11.74
2022-12-12T13:02:55.251Z,13.86
2022-12-12T13:06:00.098Z,10.97
2022-12-12T13:09:31.911Z,8.72
2022-12-12T13:12:37.341Z,11.79
2022-12-12T13:15:42.820Z,12.75
2022-12-12T13:18:48.329Z,10.42
2022-12-12T13:21:56.576Z,10.47
2022-12-12T13:25:05.173Z,6.83
2022-12-12T13:28:13.613Z,4.78
2022-12-12T13:31:29.029Z,3.57
2022-12-12T13:34:32.355Z,2.83
2022-12-12T13:37:36.492Z,2.37
2022-12-12T13:40:44.764Z,2.09
2022-12-12T13:43:48.780Z,1.88
2022-12-12T13:46:51.483Z,1.89
2022-12-12T13:49:55.277Z,1.99
2022-12-12T13:53:20.766Z,1.78
2022-12-12T13:56:35.125Z,1.55
2022-12-12T13:59:52.733Z,1.33
2022-12-12T14:03:02.029Z,1.13
2022-12-12T14:06:11.221Z,1.02
2022-12-12T14:09:21.365Z,1.01
2022-12-12T14:12:31.420Z,0.97
2022-12-12T14:15:41.182Z,0.91
2022-12-12T14:18:59.824Z,0.85
2022-12-12T14:22:02.405Z,0.78
2022-12-12T14:25:09.167Z,0.71
2022-12-12T14:28:19.749Z,0.59
2022-12-12T14:31:23.547Z,0.43
2022-12-12T14:34:28.503Z,0.42
2022-12-12T14:37:40.379Z,0.41
2022-12-12T14:40:46.323Z,0.42
2022-12-12T14:44:38.017Z,0.46
2022-12-12T14:47:18.509Z,0.59
2022-12-12T14:50:21.050Z,0.70
2022-12-12T14:53:25.487Z,0.73
2022-12-12T14:56:29.594Z,0.72
2022-12-12T14:59:35.510Z,0.78
2022-12-12T15:02:40.072Z,0.75
2022-12-12T15:05:42.883Z,0.73
2022-12-12T15:08:45.724Z,0.59
2022-12-12T15:11:49.294Z,0.39
2022-12-12T15:14:58.194Z,0.14
2022-12-12T15:18:02.211Z,-0.04
2022-12-12T15:21:05.698Z,-0.20
2022-12-12T15:24:17.456Z,-0.21
2022-12-12T15:27:25.216Z,-0.23
2022-12-12T15:30:33.932Z,-0.25
2022-12-12T15:33:39.286Z,-0.37
2022-12-12T15:36:41.974Z,-0.49
2022-12-12T15:39:44.813Z,-0.55
2022-12-12T15:42:50.212Z,-0.63
2022-12-12T15:45:56.036Z,-0.72
2022-12-12T15:48:58.870Z,-0.82
2022-12-12T15:52:10.166Z,-0.92
2022-12-12T15:55:20.552Z,-1.00
2022-12-12T15:58:29.466Z,-1.06
2022-12-12T16:01:33.833Z,-1.17
2022-12-12T16:04:36.995Z,-1.19
2022-12-12T16:07:40.741Z,-1.25
2022-12-12T16:10:52.245Z,-1.29
2022-12-12T16:13:55.205Z,-1.36
2022-12-12T16:17:02.899Z,-1.44
2022-12-12T16:20:07.493Z,-1.51
2022-12-12T16:23:17.515Z,-1.56
2022-12-12T16:26:20.402Z,-1.59
2022-12-12T16:29:23.237Z,-1.52
2022-12-12T16:32:27.791Z,-1.50
2022-12-12T16:35:30.683Z,-1.57
2022-12-12T16:38:33.661Z,-1.53
2022-12-12T16:41:36.787Z,-1.69
2022-12-12T16:44:39.466Z,-1.65
2022-12-12T16:47:43.537Z,-1.65
2022-12-12T16:50:46.858Z,-1.60
2022-12-12T16:53:49.451Z,-1.62
2022-12-12T16:56:54.025Z,-1.69
2022-12-12T16:59:56.826Z,-1.80
2022-12-12T17:03:00.871Z,-1.84
2022-12-12T17:06:04.122Z,-1.82
2022-12-12T17:09:06.725Z,-1.85
2022-12-12T17:12:11.623Z,-1.99
2022-12-12T17:15:17.397Z,-2.06
2022-12-12T17:18:21.801Z,-2.01
2022-12-12T17:21:24.380Z,-1.94
2022-12-12T17:24:27.319Z,-2.01
2022-12-12T17:27:30.108Z,-2.06
2022-12-12T17:30:32.878Z,-2.11
2022-12-12T17:33:49.615Z,-2.13
2022-12-12T17:36:53.221Z,-2.17
2022-12-12T17:39:55.835Z,-2.13
2022-12-12T17:42:58.967Z,-2.20
2022-12-12T17:46:04.421Z,-2.33
2022-12-12T17:49:08.710Z,-2.27
2022-12-12T17:52:11.319Z,-2.17
2022-12-12T17:55:54.735Z,-2.34
2022-12-12T17:58:36.673Z,-2.33
2022-12-12T18:01:39.253Z,-2.36
2022-12-12T18:04:43.520Z,-2.31
2022-12-12T18:07:46.593Z,-2.35
2022-12-12T18:10:49.463Z,-2.34
2022-12-12T18:13:52.969Z,-2.31
2022-12-12T18:16:55.911Z,-2.34
2022-12-12T18:20:00.039Z,-2.47
2022-12-12T18:23:02.977Z,-2.44
2022-12-12T18:26:06.680Z,-2.38
2022-12-12T18:29:09.980Z,-2.40
2022-12-12T18:32:12.821Z,-2.44
2022-12-12T18:35:16.992Z,-2.36
2022-12-12T18:38:20.371Z,-2.42
2022-12-12T18:41:23.239Z,-2.43
2022-12-12T18:44:26.067Z,-2.45
2022-12-12T18:47:28.861Z,-2.46
2022-12-12T18:50:33.983Z,-2.45
2022-12-12T18:53:37.795Z,-2.59
2022-12-12T18:56:40.664Z,-2.58
2022-12-12T18:59:43.305Z,-2.64
2022-12-12T19:02:46.066Z,-2.64
2022-12-12T19:05:50.220Z,-2.55
2022-12-12T19:08:54.328Z,-2.54
2022-12-12T19:12:02.507Z,-2.68
2022-12-12T19:15:21.724Z,-2.67
2022-12-12T19:18:24.842Z,-2.71
2022-12-12T19:21:28.996Z,-2.74
2022-12-12T19:24:31.655Z,-2.72
2022-12-12T19:27:34.351Z,-2.57
2022-12-12T19:30:40.835Z,-2.55
2022-12-12T19:33:43.590Z,-2.45
2022-12-12T19:36:47.636Z,-2.41
2022-12-12T19:39:52.265Z,-2.40
2022-12-12T19:42:54.977Z,-2.41
2022-12-12T19:46:04.121Z,-2.41
2022-12-12T19:49:08.545Z,-2.38
2022-12-12T19:52:14.487Z,-2.46
2022-12-12T19:55:17.700Z,-2.60
2022-12-12T19:58:20.609Z,-2.66
2022-12-12T20:01:25.514Z,-2.65
2022-12-12T20:04:30.251Z,-2.75
2022-12-12T20:07:34.445Z,-2.73
2022-12-12T20:10:38.884Z,-2.78
2022-12-12T20:13:41.919Z,-2.85
2022-12-12T20:16:45.415Z,-2.90
2022-12-12T20:19:49.386Z,-2.92
2022-12-12T20:22:53.605Z,-2.88
2022-12-12T20:25:56.229Z,-3.11
2022-12-12T20:29:00.617Z,-3.29
2022-12-12T20:32:03.357Z,-3.26
2022-12-12T20:35:06.802Z,-3.20
2022-12-12T20:38:11.185Z,-3.40
2022-12-12T20:41:18.179Z,-3.55
2022-12-12T20:44:20.944Z,-3.58
2022-12-12T20:47:24.380Z,-3.59
2022-12-12T20:50:27.500Z,-3.61
2022-12-12T20:53:36.252Z,-3.65
2022-12-12T20:56:42.952Z,-3.60
2022-12-12T20:59:49.379Z,-3.66
2022-12-12T21:02:52.069Z,-3.87
2022-12-12T21:05:55.104Z,-3.80
2022-12-12T21:09:00.958Z,-3.80
2022-12-12T21:12:03.701Z,-3.84
2022-12-12T21:15:06.964Z,-3.89
2022-12-12T21:18:09.933Z,-3.94
2022-12-12T21:21:13.540Z,-3.96
2022-12-12T21:24:19.416Z,-3.95
2022-12-12T21:27:22.185Z,-4.02
2022-12-12T21:30:25.025Z,-4.08
2022-12-12T21:33:28.413Z,-4.12
2022-12-12T21:36:31.381Z,-4.17
2022-12-12T21:39:36.659Z,-4.20
2022-12-12T21:42:39.526Z,-4.20
2022-12-12T21:45:42.193Z,-4.28
2022-12-12T21:48:44.942Z,-4.34
2022-12-12T21:51:47.716Z,-4.43
2022-12-12T21:54:51.785Z,-4.39
2022-12-12T21:57:54.452Z,-4.40
2022-12-12T22:00:57.265Z,-4.37
2022-12-12T22:04:01.033Z,-4.38
2022-12-12T22:07:03.854Z,-4.46
2022-12-12T22:10:10.823Z,-4.47
2022-12-12T22:13:14.720Z,-4.48
2022-12-12T22:16:19.400Z,-4.51
2022-12-12T22:19:22.050Z,-4.54
2022-12-12T22:22:24.752Z,-4.53
2022-12-12T22:25:29.108Z,-4.50
2022-12-12T22:28:32.159Z,-4.48
2022-12-12T22:31:37.462Z,-4.51
2022-12-12T22:34:40.729Z,-4.63
2022-12-12T22:37:43.402Z,-4.70
2022-12-12T22:40:55.280Z,-4.79
2022-12-12T22:43:59.838Z,-4.69
2022-12-12T22:47:02.586Z,-4.63
2022-12-12T22:50:05.798Z,-4.72
2022-12-12T22:53:08.741Z,-4.78
2022-12-12T22:56:13.469Z,-4.94
2022-12-12T22:59:16.725Z,-4.96
2022-12-12T23:02:24.770Z,-4.85
2022-12-12T23:05:28.036Z,-4.94
2022-12-12T23:08:31.039Z,-4.99
2022-12-12T23:11:36.607Z,-5.10
2022-12-12T23:14:39.404Z,-5.01
2022-12-12T23:17:42.073Z,-4.99
2022-12-12T23:20:47.011Z,-5.06
2022-12-12T23:23:50.390Z,-5.16
2022-12-12T23:26:54.479Z,-5.19
2022-12-12T23:29:57.134Z,-5.22
2022-12-12T23:32:59.955Z,-5.13
2022-12-12T23:36:02.876Z,-4.96
2022-12-12T23:39:08.707Z,-4.96
2022-12-12T23:42:12.965Z,-4.99
2022-12-12T23:45:16.662Z,-5.20
2022-12-12T23:48:20.066Z,-5.08
2022-12-12T23:51:23.410Z,-4.97
2022-12-12T23:54:28.404Z,-4.96
2022-12-12T23:57:32.491Z,-5.11
